sensor_id;sensor_type;location;lat;lon;timestamp;pressure;altitude;pressure_sealevel;temperature;humidity
4598;BME280;62772;48.646;8.906;2023-08-17T00:01:00;96474.97;;;18.17;100.00
4598;BME280;62772;48.646;8.906;2023-08-17T00:06:00;96476.81;;;18.32;100.00
4598;BME280;62772;48.646;8.906;2023-08-17T00:11:01;96475.31;;;18.15;100.00
4598;BME280;62772;48.646;8.906;2023-08-17T00:16:01;96480.69;;;17.44;100.00
4598;BME280;62772;48.646;8.906;2023-08-17T00:21:02;96481.47;;;17.29;100.00
4598;BME280;62772;48.646;8.906;2023-08-17T00:26:04;96495.78;;;17.29;100.00
4598;BME280;62772;48.646;8.906;2023-08-17T00:31:04;96481.41;;;17.76;100.00
4598;BME280;62772;48.646;8.906;2023-08-17T00:36:04;96463.56;;;17.20;100.00
4598;BME280;62772;48.646;8.906;2023-08-17T00:41:07;96474.53;;;17.28;100.00
4598;BME280;62772;48.646;8.906;2023-08-17T00:46:07;96467.44;;;17.55;100.00
4598;BME280;62772;48.646;8.906;2023-08-17T00:51:08;96450.25;;;16.96;100.00
4598;BME280;62772;48.646;8.906;2023-08-17T00:56:09;96444.25;;;16.58;100.00
4598;BME280;62772;48.646;8.906;2023-08-17T01:01:09;96450.59;;;16.50;100.00
4598;BME280;62772;48.646;8.906;2023-08-17T01:06:11;96447.44;;;16.92;100.00
4598;BME280;62772;48.646;8.906;2023-08-17T01:11:34;96455.53;;;17.08;100.00
4598;BME280;62772;48.646;8.906;2023-08-17T01:16:42;96445.97;;;17.11;100.00
4598;BME280;62772;48.646;8.906;2023-08-17T01:21:50;96449.28;;;17.20;100.00
4598;BME280;62772;48.646;8.906;2023-08-17T01:26:51;96449.50;;;16.83;100.00
4598;BME280;62772;48.646;8.906;2023-08-17T01:37:06;96451.81;;;16.97;100.00
4598;BME280;62772;48.646;8.906;2023-08-17T01:42:08;96455.66;;;17.12;100.00
4598;BME280;62772;48.646;8.906;2023-08-17T01:47:10;96456.94;;;17.02;100.00
4598;BME280;62772;48.646;8.906;2023-08-17T01:52:11;96456.84;;;17.14;100.00
4598;BME280;62772;48.646;8.906;2023-08-17T01:57:12;96449.47;;;16.67;100.00
4598;BME280;62772;48.646;8.906;2023-08-17T02:02:12;96459.84;;;16.65;100.00
4598;BME280;62772;48.646;8.906;2023-08-17T02:07:14;96463.41;;;16.69;100.00
4598;BME280;62772;48.646;8.906;2023-08-17T02:12:15;96456.81;;;16.82;100.00
4598;BME280;62772;48.646;8.906;2023-08-17T02:17:16;96453.38;;;16.54;100.00
4598;BME280;62772;48.646;8.906;2023-08-17T02:22:17;96454.03;;;16.79;100.00
4598;BME280;62772;48.646;8.906;2023-08-17T02:27:17;96450.41;;;17.03;100.00
4598;BME280;62772;48.646;8.906;2023-08-17T02:32:17;96443.00;;;17.16;100.00
4598;BME280;62772;48.646;8.906;2023-08-17T02:37:18;96448.63;;;16.79;100.00
4598;BME280;62772;48.646;8.906;2023-08-17T02:42:18;96451.28;;;16.91;100.00
4598;BME280;62772;48.646;8.906;2023-08-17T02:47:19;96441.19;;;16.88;100.00
4598;BME280;62772;48.646;8.906;2023-08-17T02:52:19;96444.63;;;16.73;100.00
4598;BME280;62772;48.646;8.906;2023-08-17T02:57:20;96444.25;;;16.58;100.00
4598;BME280;62772;48.646;8.906;2023-08-17T03:02:20;96447.84;;;16.62;100.00
4598;BME280;62772;48.646;8.906;2023-08-17T03:07:21;96444.63;;;16.73;100.00
4598;BME280;62772;48.646;8.906;2023-08-17T03:12:21;96441.31;;;16.63;100.00
4598;BME280;62772;48.646;8.906;2023-08-17T03:17:22;96434.34;;;16.62;100.00
4598;BME280;62772;48.646;8.906;2023-08-17T03:22:22;96427.38;;;16.61;100.00
4598;BME280;62772;48.646;8.906;2023-08-17T03:27:23;96436.97;;;16.75;100.00
4598;BME280;62772;48.646;8.906;2023-08-17T03:32:25;96435.00;;;16.88;100.00
4598;BME280;62772;48.646;8.906;2023-08-17T03:37:26;96431.75;;;16.82;100.00
4598;BME280;62772;48.646;8.906;2023-08-17T03:42:27;96430.19;;;16.81;100.00
4598;BME280;62772;48.646;8.906;2023-08-17T03:47:30;96424.72;;;16.77;100.00
4598;BME280;62772;48.646;8.906;2023-08-17T03:52:30;96430.84;;;16.90;100.00
4598;BME280;62772;48.646;8.906;2023-08-17T03:57:31;96438.03;;;16.86;100.00
4598;BME280;62772;48.646;8.906;2023-08-17T04:02:31;96446.13;;;16.86;100.00
4598;BME280;62772;48.646;8.906;2023-08-17T04:07:32;96468.41;;;16.99;100.00
4598;BME280;62772;48.646;8.906;2023-08-17T04:12:32;96461.56;;;16.73;100.00
4598;BME280;62772;48.646;8.906;2023-08-17T04:17:33;96464.38;;;16.61;100.00
4598;BME280;62772;48.646;8.906;2023-08-17T04:22:33;96472.94;;;16.50;100.00
4598;BME280;62772;48.646;8.906;2023-08-17T04:27:34;96484.66;;;16.42;100.00
4598;BME280;62772;48.646;8.906;2023-08-17T04:32:34;96490.03;;;16.42;100.00
4598;BME280;62772;48.646;8.906;2023-08-17T04:37:35;96491.28;;;16.45;100.00
4598;BME280;62772;48.646;8.906;2023-08-17T04:42:36;96491.38;;;16.48;100.00
4598;BME280;62772;48.646;8.906;2023-08-17T04:47:36;96488.03;;;16.39;100.00
4598;BME280;62772;48.646;8.906;2023-08-17T04:52:37;96501.41;;;16.36;100.00
4598;BME280;62772;48.646;8.906;2023-08-17T04:57:39;96501.75;;;16.34;100.00
4598;BME280;62772;48.646;8.906;2023-08-17T05:02:42;96504.75;;;16.45;100.00
4598;BME280;62772;48.646;8.906;2023-08-17T05:07:42;96505.97;;;16.47;100.00
4598;BME280;62772;48.646;8.906;2023-08-17T05:12:43;96498.41;;;16.81;100.00
4598;BME280;62772;48.646;8.906;2023-08-17T05:17:44;96502.78;;;16.86;100.00
4598;BME280;62772;48.646;8.906;2023-08-17T05:22:46;96502.22;;;16.80;100.00
4598;BME280;62772;48.646;8.906;2023-08-17T05:27:47;96490.88;;;16.87;100.00
4598;BME280;62772;48.646;8.906;2023-08-17T05:32:50;96490.38;;;16.97;100.00
4598;BME280;62772;48.646;8.906;2023-08-17T05:37:51;96489.78;;;16.76;100.00
4598;BME280;62772;48.646;8.906;2023-08-17T05:42:51;96477.28;;;16.55;100.00
4598;BME280;62772;48.646;8.906;2023-08-17T05:47:52;96480.69;;;16.52;100.00
4598;BME280;62772;48.646;8.906;2023-08-17T05:52:54;96500.72;;;16.67;100.00
4598;BME280;62772;48.646;8.906;2023-08-17T05:57:54;96500.28;;;17.09;100.00
4598;BME280;62772;48.646;8.906;2023-08-17T06:02:55;96476.53;;;16.55;100.00
4598;BME280;62772;48.646;8.906;2023-08-17T06:08:01;96482.34;;;16.57;100.00
4598;BME280;62772;48.646;8.906;2023-08-17T06:13:01;96486.78;;;16.65;100.00
4598;BME280;62772;48.646;8.906;2023-08-17T06:18:02;96480.88;;;17.19;100.00
4598;BME280;62772;48.646;8.906;2023-08-17T06:23:03;96476.44;;;16.95;100.00
4598;BME280;62772;48.646;8.906;2023-08-17T06:28:05;96479.84;;;16.64;100.00
4598;BME280;62772;48.646;8.906;2023-08-17T06:33:06;96477.94;;;17.25;100.00
4598;BME280;62772;48.646;8.906;2023-08-17T06:38:06;96473.19;;;17.53;100.00
4598;BME280;62772;48.646;8.906;2023-08-17T06:43:07;96458.03;;;17.49;100.00
4598;BME280;62772;48.646;8.906;2023-08-17T06:48:07;96459.88;;;17.45;100.00
4598;BME280;62772;48.646;8.906;2023-08-17T06:53:07;96457.91;;;17.77;100.00
4598;BME280;62772;48.646;8.906;2023-08-17T06:58:08;96458.00;;;18.00;100.00
4598;BME280;62772;48.646;8.906;2023-08-17T07:03:08;96453.59;;;17.92;100.00
4598;BME280;62772;48.646;8.906;2023-08-17T07:08:09;96463.06;;;18.02;100.00
4598;BME280;62772;48.646;8.906;2023-08-17T07:13:09;96455.53;;;17.91;100.00
4598;BME280;62772;48.646;8.906;2023-08-17T07:18:10;96463.72;;;17.79;100.00
4598;BME280;62772;48.646;8.906;2023-08-17T07:23:10;96461.94;;;18.03;100.00
4598;BME280;62772;48.646;8.906;2023-08-17T07:28:10;96466.50;;;17.83;100.00
4598;BME280;62772;48.646;8.906;2023-08-17T07:33:11;96463.72;;;17.79;100.00
4598;BME280;62772;48.646;8.906;2023-08-17T07:38:11;96467.56;;;18.33;100.00
4598;BME280;62772;48.646;8.906;2023-08-17T07:43:12;96459.47;;;18.56;100.00
4598;BME280;62772;48.646;8.906;2023-08-17T07:48:12;96460.09;;;18.69;100.00
4598;BME280;62772;48.646;8.906;2023-08-17T07:53:13;96460.19;;;18.73;100.00
4598;BME280;62772;48.646;8.906;2023-08-17T07:58:13;96462.69;;;18.62;100.00
4598;BME280;62772;48.646;8.906;2023-08-17T08:03:14;96468.03;;;18.39;100.00
4598;BME280;62772;48.646;8.906;2023-08-17T08:08:15;96469.03;;;18.30;100.00
4598;BME280;62772;48.646;8.906;2023-08-17T08:13:17;96465.66;;;18.76;100.00
4598;BME280;62772;48.646;8.906;2023-08-17T08:18:18;96468.88;;;19.05;100.00
4598;BME280;62772;48.646;8.906;2023-08-17T08:23:18;96462.97;;;19.23;100.00
4598;BME280;62772;48.646;8.906;2023-08-17T08:28:19;96460.34;;;19.03;100.00
4598;BME280;62772;48.646;8.906;2023-08-17T08:33:19;96454.97;;;19.07;100.00
4598;BME280;62772;48.646;8.906;2023-08-17T08:38:20;96458.16;;;19.35;100.00
4598;BME280;62772;48.646;8.906;2023-08-17T08:43:20;96462.38;;;19.33;100.00
4598;BME280;62772;48.646;8.906;2023-08-17T08:48:22;96454.25;;;19.33;100.00
4598;BME280;62772;48.646;8.906;2023-08-17T08:53:38;96446.59;;;19.65;100.00
4598;BME280;62772;48.646;8.906;2023-08-17T08:58:40;96452.91;;;19.73;100.00
4598;BME280;62772;48.646;8.906;2023-08-17T09:03:42;96451.72;;;20.01;100.00
4598;BME280;62772;48.646;8.906;2023-08-17T09:08:43;96443.47;;;20.20;100.00
4598;BME280;62772;48.646;8.906;2023-08-17T09:13:45;96440.22;;;20.41;100.00
4598;BME280;62772;48.646;8.906;2023-08-17T09:18:45;96445.00;;;20.55;100.00
4598;BME280;62772;48.646;8.906;2023-08-17T09:23:53;96431.03;;;20.91;100.00
4598;BME280;62772;48.646;8.906;2023-08-17T09:28:54;96439.47;;;20.82;100.00
4598;BME280;62772;48.646;8.906;2023-08-17T09:33:56;96428.41;;;21.01;100.00
4598;BME280;62772;48.646;8.906;2023-08-17T09:38:57;96428.56;;;21.23;100.00
4598;BME280;62772;48.646;8.906;2023-08-17T09:43:57;96423.47;;;21.14;100.00
4598;BME280;62772;48.646;8.906;2023-08-17T09:48:58;96427.94;;;21.44;100.00
4598;BME280;62772;48.646;8.906;2023-08-17T09:53:58;96430.38;;;21.53;100.00
4598;BME280;62772;48.646;8.906;2023-08-17T09:58:59;96433.91;;;21.61;100.00
4598;BME280;62772;48.646;8.906;2023-08-17T10:04:00;96425.53;;;21.91;100.00
4598;BME280;62772;48.646;8.906;2023-08-17T10:09:02;96424.78;;;21.98;100.00
4598;BME280;62772;48.646;8.906;2023-08-17T10:14:09;96422.88;;;22.05;100.00
4598;BME280;62772;48.646;8.906;2023-08-17T10:24:33;96416.69;;;22.16;100.00
4598;BME280;62772;48.646;8.906;2023-08-17T10:29:38;96423.31;;;22.22;100.00
4598;BME280;62772;48.646;8.906;2023-08-17T10:34:39;96428.47;;;22.52;100.00
4598;BME280;62772;48.646;8.906;2023-08-17T10:39:45;96425.41;;;22.79;100.00
4598;BME280;62772;48.646;8.906;2023-08-17T10:44:47;96430.50;;;23.02;100.00
4598;BME280;62772;48.646;8.906;2023-08-17T10:49:55;96427.78;;;23.27;100.00
4598;BME280;62772;48.646;8.906;2023-08-17T10:54:56;96418.84;;;23.27;100.00
4598;BME280;62772;48.646;8.906;2023-08-17T11:00:14;96424.31;;;23.23;100.00
4598;BME280;62772;48.646;8.906;2023-08-17T11:10:34;96423.44;;;23.80;100.00
4598;BME280;62772;48.646;8.906;2023-08-17T11:20:42;96396.53;;;23.93;100.00
4598;BME280;62772;48.646;8.906;2023-08-17T11:25:42;96402.72;;;23.97;100.00
4598;BME280;62772;48.646;8.906;2023-08-17T11:30:43;96403.56;;;23.94;100.00
4598;BME280;62772;48.646;8.906;2023-08-17T11:35:44;96398.69;;;24.34;100.00
4598;BME280;62772;48.646;8.906;2023-08-17T11:40:46;96407.28;;;24.29;100.00
4598;BME280;62772;48.646;8.906;2023-08-17T11:45:46;96400.69;;;24.26;100.00
4598;BME280;62772;48.646;8.906;2023-08-17T11:50:48;96404.88;;;24.38;100.00
4598;BME280;62772;48.646;8.906;2023-08-17T11:55:49;96405.59;;;24.53;100.00
4598;BME280;62772;48.646;8.906;2023-08-17T12:00:49;96416.13;;;24.58;100.00
4598;BME280;62772;48.646;8.906;2023-08-17T12:05:50;96431.75;;;24.58;100.00
4598;BME280;62772;48.646;8.906;2023-08-17T12:10:52;96439.50;;;24.63;100.00
4598;BME280;62772;48.646;8.906;2023-08-17T12:15:52;96436.41;;;24.47;100.00
4598;BME280;62772;48.646;8.906;2023-08-17T12:20:53;96441.50;;;24.44;100.00
4598;BME280;62772;48.646;8.906;2023-08-17T12:25:55;96438.75;;;24.48;100.00
4598;BME280;62772;48.646;8.906;2023-08-17T12:31:03;96417.31;;;24.47;100.00
4598;BME280;62772;48.646;8.906;2023-08-17T12:36:03;96428.72;;;24.34;100.00
4598;BME280;62772;48.646;8.906;2023-08-17T12:41:04;96438.19;;;23.97;100.00
4598;BME280;62772;48.646;8.906;2023-08-17T12:46:04;96455.38;;;23.76;100.00
4598;BME280;62772;48.646;8.906;2023-08-17T12:51:05;96449.56;;;23.52;100.00
4598;BME280;62772;48.646;8.906;2023-08-17T12:56:05;96444.13;;;23.49;100.00
4598;BME280;62772;48.646;8.906;2023-08-17T13:01:06;96437.09;;;23.77;100.00
4598;BME280;62772;48.646;8.906;2023-08-17T13:06:07;96444.44;;;23.80;100.00
4598;BME280;62772;48.646;8.906;2023-08-17T13:11:07;96445.31;;;23.41;100.00
4598;BME280;62772;48.646;8.906;2023-08-17T13:16:08;96440.28;;;23.21;100.00
4598;BME280;62772;48.646;8.906;2023-08-17T13:21:09;96416.50;;;23.04;100.00
4598;BME280;62772;48.646;8.906;2023-08-17T13:26:09;96417.66;;;22.85;100.00
4598;BME280;62772;48.646;8.906;2023-08-17T13:31:10;96414.16;;;23.38;100.00
4598;BME280;62772;48.646;8.906;2023-08-17T13:36:10;96423.13;;;23.42;100.00
4598;BME280;62772;48.646;8.906;2023-08-17T13:41:11;96416.88;;;22.98;100.00
4598;BME280;62772;48.646;8.906;2023-08-17T13:46:12;96417.63;;;22.77;100.00
4598;BME280;62772;48.646;8.906;2023-08-17T13:51:12;96420.69;;;22.47;100.00
4598;BME280;62772;48.646;8.906;2023-08-17T13:56:13;96425.16;;;21.92;100.00
4598;BME280;62772;48.646;8.906;2023-08-17T14:01:13;96411.63;;;22.14;100.00
4598;BME280;62772;48.646;8.906;2023-08-17T14:06:14;96407.75;;;22.08;100.00
4598;BME280;62772;48.646;8.906;2023-08-17T14:11:16;96398.72;;;21.97;100.00
4598;BME280;62772;48.646;8.906;2023-08-17T14:16:16;96392.25;;;22.26;100.00
4598;BME280;62772;48.646;8.906;2023-08-17T14:21:16;96362.41;;;22.52;100.00
4598;BME280;62772;48.646;8.906;2023-08-17T14:26:17;96359.31;;;22.82;100.00
4598;BME280;62772;48.646;8.906;2023-08-17T14:31:17;96374.47;;;22.90;100.00
4598;BME280;62772;48.646;8.906;2023-08-17T14:36:18;96371.34;;;23.03;100.00
4598;BME280;62772;48.646;8.906;2023-08-17T14:41:18;96359.69;;;22.80;100.00
4598;BME280;62772;48.646;8.906;2023-08-17T14:46:20;96356.19;;;23.12;100.00
4598;BME280;62772;48.646;8.906;2023-08-17T14:51:20;96355.00;;;23.06;100.00
4598;BME280;62772;48.646;8.906;2023-08-17T14:56:21;96356.13;;;23.45;100.00
4598;BME280;62772;48.646;8.906;2023-08-17T15:01:23;96349.88;;;23.59;100.00
4598;BME280;62772;48.646;8.906;2023-08-17T15:06:24;96349.06;;;23.72;100.00
4598;BME280;62772;48.646;8.906;2023-08-17T15:11:24;96354.84;;;23.89;100.00
4598;BME280;62772;48.646;8.906;2023-08-17T15:16:25;96351.28;;;24.03;100.00
4598;BME280;62772;48.646;8.906;2023-08-17T15:21:27;96347.31;;;24.15;100.00
4598;BME280;62772;48.646;8.906;2023-08-17T15:26:27;96355.88;;;24.20;100.00
4598;BME280;62772;48.646;8.906;2023-08-17T15:31:28;96349.56;;;24.31;100.00
4598;BME280;62772;48.646;8.906;2023-08-17T15:36:28;96343.72;;;24.36;100.00
4598;BME280;62772;48.646;8.906;2023-08-17T15:41:29;96338.59;;;24.41;100.00
4598;BME280;62772;48.646;8.906;2023-08-17T15:46:29;96335.00;;;24.55;100.00
4598;BME280;62772;48.646;8.906;2023-08-17T15:51:30;96332.66;;;24.61;100.00
4598;BME280;62772;48.646;8.906;2023-08-17T15:56:30;96317.38;;;24.67;100.00
4598;BME280;62772;48.646;8.906;2023-08-17T16:01:31;96307.59;;;24.70;100.00
4598;BME280;62772;48.646;8.906;2023-08-17T16:06:32;96306.44;;;24.71;100.00
4598;BME280;62772;48.646;8.906;2023-08-17T16:11:33;96299.69;;;24.83;100.00
4598;BME280;62772;48.646;8.906;2023-08-17T16:16:33;96306.28;;;24.89;100.00
4598;BME280;62772;48.646;8.906;2023-08-17T16:21:34;96311.56;;;25.07;100.00
4598;BME280;62772;48.646;8.906;2023-08-17T16:26:34;96317.63;;;25.25;100.00
4598;BME280;62772;48.646;8.906;2023-08-17T16:31:35;96323.13;;;25.22;100.00
4598;BME280;62772;48.646;8.906;2023-08-17T16:36:35;96329.16;;;25.06;100.00
4598;BME280;62772;48.646;8.906;2023-08-17T16:41:36;96337.94;;;25.24;100.00
4598;BME280;62772;48.646;8.906;2023-08-17T16:46:36;96331.28;;;25.25;100.00
4598;BME280;62772;48.646;8.906;2023-08-17T16:51:37;96323.13;;;25.22;100.00
4598;BME280;62772;48.646;8.906;2023-08-17T16:56:37;96322.34;;;25.21;100.00
4598;BME280;62772;48.646;8.906;2023-08-17T17:01:43;96331.03;;;24.67;100.00
4598;BME280;62772;48.646;8.906;2023-08-17T17:06:44;96341.31;;;24.97;100.00
4598;BME280;62772;48.646;8.906;2023-08-17T17:11:44;96342.63;;;24.82;100.00
4598;BME280;62772;48.646;8.906;2023-08-17T17:16:45;96348.28;;;24.50;100.00
4598;BME280;62772;48.646;8.906;2023-08-17T17:21:45;96357.34;;;24.36;100.00
4598;BME280;62772;48.646;8.906;2023-08-17T17:26:46;96369.03;;;24.36;100.00
4598;BME280;62772;48.646;8.906;2023-08-17T17:31:46;96369.72;;;24.51;100.00
4598;BME280;62772;48.646;8.906;2023-08-17T17:36:47;96389.59;;;24.55;100.00
4598;BME280;62772;48.646;8.906;2023-08-17T17:41:49;96383.91;;;24.28;100.00
4598;BME280;62772;48.646;8.906;2023-08-17T17:46:49;96378.78;;;24.37;100.00
4598;BME280;62772;48.646;8.906;2023-08-17T17:51:50;96378.31;;;24.50;100.00
4598;BME280;62772;48.646;8.906;2023-08-17T17:56:50;96378.28;;;24.60;100.00
4598;BME280;62772;48.646;8.906;2023-08-17T18:01:51;96358.81;;;24.48;100.00
4598;BME280;62772;48.646;8.906;2023-08-17T18:06:51;96357.88;;;24.09;100.00
4598;BME280;62772;48.646;8.906;2023-08-17T18:11:52;96357.59;;;23.93;100.00
4598;BME280;62772;48.646;8.906;2023-08-17T18:16:52;96366.47;;;24.00;100.00
4598;BME280;62772;48.646;8.906;2023-08-17T18:21:53;96369.53;;;24.17;100.00
4598;BME280;62772;48.646;8.906;2023-08-17T18:26:53;96376.59;;;24.11;100.00
4598;BME280;62772;48.646;8.906;2023-08-17T18:31:53;96375.81;;;24.06;100.00
4598;BME280;62772;48.646;8.906;2023-08-17T18:36:54;96370.44;;;23.88;100.00
4598;BME280;62772;48.646;8.906;2023-08-17T18:41:54;96364.38;;;23.09;100.00
4598;BME280;62772;48.646;8.906;2023-08-17T18:46:55;96369.03;;;23.01;100.00
4598;BME280;62772;48.646;8.906;2023-08-17T18:51:55;96360.88;;;23.12;100.00
4598;BME280;62772;48.646;8.906;2023-08-17T18:56:56;96371.75;;;22.83;100.00
4598;BME280;62772;48.646;8.906;2023-08-17T19:01:56;96375.66;;;22.89;100.00
4598;BME280;62772;48.646;8.906;2023-08-17T19:06:57;96381.88;;;23.00;100.00
4598;BME280;62772;48.646;8.906;2023-08-17T19:11:57;96374.88;;;22.92;100.00
4598;BME280;62772;48.646;8.906;2023-08-17T19:16:58;96377.59;;;23.21;100.00
4598;BME280;62772;48.646;8.906;2023-08-17T19:21:59;96377.97;;;23.27;100.00
4598;BME280;62772;48.646;8.906;2023-08-17T19:26:59;96377.97;;;23.38;100.00
4598;BME280;62772;48.646;8.906;2023-08-17T19:32:00;96379.16;;;23.22;100.00
4598;BME280;62772;48.646;8.906;2023-08-17T19:37:02;96380.34;;;23.21;100.00
4598;BME280;62772;48.646;8.906;2023-08-17T19:42:02;96383.41;;;22.98;100.00
4598;BME280;62772;48.646;8.906;2023-08-17T19:47:03;96388.84;;;22.76;100.00
4598;BME280;62772;48.646;8.906;2023-08-17T19:52:03;96396.66;;;22.92;100.00
4598;BME280;62772;48.646;8.906;2023-08-17T19:57:04;96390.03;;;22.72;100.00
4598;BME280;62772;48.646;8.906;2023-08-17T20:02:05;96395.50;;;22.86;100.00
4598;BME280;62772;48.646;8.906;2023-08-17T20:07:05;96404.41;;;22.58;100.00
4598;BME280;62772;48.646;8.906;2023-08-17T20:12:06;96395.44;;;22.54;100.00
4598;BME280;62772;48.646;8.906;2023-08-17T20:17:07;96398.03;;;22.14;100.00
4598;BME280;62772;48.646;8.906;2023-08-17T20:22:07;96397.34;;;22.39;100.00
4598;BME280;62772;48.646;8.906;2023-08-17T20:27:08;96402.47;;;22.73;100.00
4598;BME280;62772;48.646;8.906;2023-08-17T20:32:09;96402.88;;;23.04;100.00
4598;BME280;62772;48.646;8.906;2023-08-17T20:37:09;96401.69;;;22.90;100.00
4598;BME280;62772;48.646;8.906;2023-08-17T20:42:10;96395.47;;;22.79;100.00
4598;BME280;62772;48.646;8.906;2023-08-17T20:47:12;96404.81;;;22.96;100.00
4598;BME280;62772;48.646;8.906;2023-08-17T20:52:14;96393.16;;;22.70;100.00
4598;BME280;62772;48.646;8.906;2023-08-17T20:57:14;96390.41;;;22.77;100.00
4598;BME280;62772;48.646;8.906;2023-08-17T21:02:15;96388.09;;;22.87;100.00
4598;BME280;62772;48.646;8.906;2023-08-17T21:07:16;96390.41;;;22.59;100.00
4598;BME280;62772;48.646;8.906;2023-08-17T21:12:16;96376.03;;;22.62;100.00
4598;BME280;62772;48.646;8.906;2023-08-17T21:17:17;96380.66;;;22.40;100.00
4598;BME280;62772;48.646;8.906;2023-08-17T21:22:17;96375.56;;;22.32;100.00
4598;BME280;62772;48.646;8.906;2023-08-17T21:27:17;96378.69;;;22.34;100.00
4598;BME280;62772;48.646;8.906;2023-08-17T21:32:18;96378.75;;;21.56;100.00
4598;BME280;62772;48.646;8.906;2023-08-17T21:37:26;96375.66;;;21.58;100.00
4598;BME280;62772;48.646;8.906;2023-08-17T21:42:27;96374.91;;;21.65;100.00
4598;BME280;62772;48.646;8.906;2023-08-17T21:47:28;96368.44;;;21.91;100.00
4598;BME280;62772;48.646;8.906;2023-08-17T21:52:28;96378.25;;;21.40;100.00
4598;BME280;62772;48.646;8.906;2023-08-17T21:57:29;96379.06;;;21.48;100.00
4598;BME280;62772;48.646;8.906;2023-08-17T22:02:29;96377.63;;;21.65;100.00
4598;BME280;62772;48.646;8.906;2023-08-17T22:07:30;96378.50;;;21.80;100.00
4598;BME280;62772;48.646;8.906;2023-08-17T22:12:30;96381.53;;;21.74;100.00
4598;BME280;62772;48.646;8.906;2023-08-17T22:17:30;96390.88;;;21.73;100.00
4598;BME280;62772;48.646;8.906;2023-08-17T22:22:31;96389.34;;;21.80;100.00
4598;BME280;62772;48.646;8.906;2023-08-17T22:27:31;96397.09;;;21.74;100.00
4598;BME280;62772;48.646;8.906;2023-08-17T22:32:32;96388.50;;;21.65;100.00
4598;BME280;62772;48.646;8.906;2023-08-17T22:37:32;96387.03;;;21.19;100.00
4598;BME280;62772;48.646;8.906;2023-08-17T22:42:33;96385.00;;;20.60;100.00
4598;BME280;62772;48.646;8.906;2023-08-17T22:47:33;96390.28;;;20.87;100.00
4598;BME280;62772;48.646;8.906;2023-08-17T22:52:34;96385.31;;;20.55;100.00
4598;BME280;62772;48.646;8.906;2023-08-17T22:57:34;96379.13;;;20.17;100.00
4598;BME280;62772;48.646;8.906;2023-08-17T23:02:35;96375.25;;;20.56;100.00
4598;BME280;62772;48.646;8.906;2023-08-17T23:07:35;96370.94;;;20.51;100.00
4598;BME280;62772;48.646;8.906;2023-08-17T23:12:35;96378.75;;;19.58;100.00
4598;BME280;62772;48.646;8.906;2023-08-17T23:17:36;96383.50;;;19.34;100.00
4598;BME280;62772;48.646;8.906;2023-08-17T23:22:36;96376.22;;;19.42;100.00
4598;BME280;62772;48.646;8.906;2023-08-17T23:27:37;96381.41;;;19.81;100.00
4598;BME280;62772;48.646;8.906;2023-08-17T23:32:37;96380.25;;;20.13;100.00
4598;BME280;62772;48.646;8.906;2023-08-17T23:37:38;96373.34;;;20.19;100.00
4598;BME280;62772;48.646;8.906;2023-08-17T23:42:38;96367.41;;;20.47;100.00
4598;BME280;62772;48.646;8.906;2023-08-17T23:47:38;96366.25;;;20.48;100.00
4598;BME280;62772;48.646;8.906;2023-08-17T23:52:39;96361.56;;;20.45;100.00
4598;BME280;62772;48.646;8.906;2023-08-17T23:57:39;96361.34;;;20.23;100.00
